createdAt,value
2022-08-11T00:00:00.577Z,16.71
2022-08-11T00:01:00.526Z,16.70
2022-08-11T00:02:00.529Z,16.67
2022-08-11T00:03:00.574Z,16.65
2022-08-11T00:04:00.513Z,16.62
2022-08-11T00:05:00.511Z,16.59
2022-08-11T00:06:00.475Z,16.58
2022-08-11T00:07:00.471Z,16.56
2022-08-11T00:08:00.449Z,16.58
2022-08-11T00:09:00.429Z,16.55
2022-08-11T00:10:00.423Z,16.58
2022-08-11T00:11:00.411Z,16.56
2022-08-11T00:12:00.398Z,16.56
2022-08-11T00:13:00.372Z,16.55
2022-08-11T00:14:00.372Z,16.55
2022-08-11T00:15:00.359Z,16.52
2022-08-11T00:16:00.352Z,16.53
2022-08-11T00:17:00.353Z,16.55
2022-08-11T00:18:00.330Z,16.53
2022-08-11T00:19:00.294Z,16.55
2022-08-11T00:20:11.601Z,16.58
2022-08-11T00:21:01.280Z,16.56
2022-08-11T00:22:04.833Z,16.53
2022-08-11T00:23:01.259Z,16.52
2022-08-11T00:24:00.247Z,16.50
2022-08-11T00:25:02.571Z,16.50
2022-08-11T00:26:00.230Z,16.49
2022-08-11T00:27:00.192Z,16.45
2022-08-11T00:28:00.220Z,16.48
2022-08-11T00:29:00.182Z,16.44
2022-08-11T00:30:00.170Z,16.40
2022-08-11T00:31:00.142Z,16.35
2022-08-11T00:32:00.133Z,16.34
2022-08-11T00:33:00.126Z,16.34
2022-08-11T00:34:00.122Z,16.31
2022-08-11T00:35:51.228Z,16.31
2022-08-11T00:36:01.084Z,16.31
2022-08-11T00:37:00.063Z,16.33
2022-08-11T00:38:00.059Z,16.31
2022-08-11T00:39:00.053Z,16.30
2022-08-11T00:40:00.129Z,16.27
2022-08-11T00:41:00.028Z,16.26
2022-08-11T00:42:00.006Z,16.25
2022-08-11T00:42:59.996Z,16.25
2022-08-11T00:44:00.005Z,16.23
2022-08-11T00:44:59.955Z,16.20
2022-08-11T00:45:59.966Z,16.18
2022-08-11T00:46:59.926Z,16.14
2022-08-11T00:48:00.344Z,16.12
2022-08-11T00:48:59.924Z,16.09
2022-08-11T00:49:59.897Z,16.04
2022-08-11T00:50:59.901Z,16.01
2022-08-11T00:52:05.860Z,15.99
2022-08-11T00:53:00.846Z,15.96
2022-08-11T00:53:59.837Z,15.96
2022-08-11T00:54:59.856Z,15.92
2022-08-11T00:55:59.817Z,15.92
2022-08-11T00:56:59.797Z,15.89
2022-08-11T00:57:59.798Z,15.88
2022-08-11T00:58:59.775Z,15.85
2022-08-11T00:59:59.759Z,15.82
2022-08-11T01:00:59.855Z,15.78
2022-08-11T01:01:59.740Z,15.78
2022-08-11T01:02:59.736Z,15.81
2022-08-11T01:03:59.727Z,15.78
2022-08-11T01:04:59.702Z,15.79
2022-08-11T01:05:59.713Z,15.79
2022-08-11T01:06:59.678Z,15.78
2022-08-11T01:08:03.230Z,15.78
2022-08-11T01:08:59.656Z,15.78
2022-08-11T01:10:03.766Z,15.79
2022-08-11T01:11:00.655Z,15.78
2022-08-11T01:11:59.605Z,15.79
2022-08-11T01:12:59.599Z,15.79
2022-08-11T01:13:59.571Z,15.79
2022-08-11T01:14:59.569Z,15.76
2022-08-11T01:15:59.563Z,15.72
2022-08-11T01:16:59.532Z,15.72
2022-08-11T01:17:59.533Z,15.72
2022-08-11T01:18:59.521Z,15.72
2022-08-11T01:20:44.970Z,15.70
2022-08-11T01:21:00.484Z,15.70
2022-08-11T01:21:59.484Z,15.70
2022-08-11T01:22:59.472Z,15.67
2022-08-11T01:23:59.462Z,15.66
2022-08-11T01:24:59.434Z,15.66
2022-08-11T01:25:59.433Z,15.63
2022-08-11T01:26:59.408Z,15.61
2022-08-11T01:27:59.387Z,15.63
2022-08-11T01:28:59.389Z,15.63
2022-08-11T01:29:59.367Z,15.61
2022-08-11T01:30:59.376Z,15.59
2022-08-11T01:31:59.356Z,15.59
2022-08-11T01:32:59.328Z,15.59
2022-08-11T01:33:59.324Z,15.60
2022-08-11T01:34:59.304Z,15.60
2022-08-11T01:35:59.311Z,15.63
2022-08-11T01:36:59.286Z,15.64
2022-08-11T01:37:59.279Z,15.60
2022-08-11T01:38:59.261Z,15.60
2022-08-11T01:39:59.240Z,15.60
2022-08-11T01:40:59.232Z,15.59
2022-08-11T01:41:59.207Z,15.61
2022-08-11T01:42:59.186Z,15.64
2022-08-11T01:43:59.188Z,15.64
2022-08-11T01:44:59.188Z,15.67
2022-08-11T01:45:59.179Z,15.68
2022-08-11T01:46:59.153Z,15.72
2022-08-11T01:47:59.121Z,15.72
2022-08-11T01:48:59.114Z,15.70
2022-08-11T01:50:09.936Z,15.72
2022-08-11T01:51:00.092Z,15.70
2022-08-11T01:51:59.070Z,15.72
2022-08-11T01:52:59.052Z,15.70
2022-08-11T01:53:59.070Z,15.68
2022-08-11T01:54:59.073Z,15.66
2022-08-11T01:55:59.033Z,15.66
2022-08-11T01:56:59.016Z,15.64
2022-08-11T01:57:58.990Z,15.60
2022-08-11T01:58:58.980Z,15.57
2022-08-11T01:59:59.008Z,15.54
2022-08-11T02:00:59.041Z,15.51
2022-08-11T02:01:58.950Z,15.51
2022-08-11T02:02:58.935Z,15.51
2022-08-11T02:03:58.926Z,15.51
2022-08-11T02:04:58.894Z,15.52
2022-08-11T02:05:58.894Z,15.49
2022-08-11T02:06:58.891Z,15.51
2022-08-11T02:07:58.881Z,15.49
2022-08-11T02:08:58.866Z,15.51
2022-08-11T02:09:58.933Z,15.51
2022-08-11T02:10:58.833Z,15.51
2022-08-11T02:11:58.803Z,15.51
2022-08-11T02:12:58.785Z,15.48
2022-08-11T02:13:58.796Z,15.48
2022-08-11T02:15:04.972Z,15.48
2022-08-11T02:15:59.751Z,15.46
2022-08-11T02:16:58.722Z,15.49
2022-08-11T02:17:58.740Z,15.49
2022-08-11T02:18:58.705Z,15.49
2022-08-11T02:19:58.734Z,15.48
2022-08-11T02:20:58.693Z,15.46
2022-08-11T02:21:58.694Z,15.41
2022-08-11T02:22:58.676Z,15.41
2022-08-11T02:24:07.031Z,15.42
2022-08-11T02:24:59.641Z,15.41
2022-08-11T02:25:58.766Z,15.41
2022-08-11T02:26:58.594Z,15.39
2022-08-11T02:27:58.693Z,15.39
2022-08-11T02:28:58.590Z,15.38
2022-08-11T02:29:58.601Z,15.38
2022-08-11T02:30:58.649Z,15.38
2022-08-11T02:32:24.444Z,15.35
2022-08-11T02:32:59.526Z,15.35
2022-08-11T02:33:58.517Z,15.31
2022-08-11T02:34:59.922Z,15.28
2022-08-11T02:35:58.574Z,15.28
2022-08-11T02:37:23.617Z,15.27
2022-08-11T02:37:58.467Z,15.26
2022-08-11T02:38:58.471Z,15.26
2022-08-11T02:39:58.446Z,15.26
2022-08-11T02:40:58.497Z,15.26
2022-08-11T02:41:58.491Z,15.24
2022-08-11T02:42:59.429Z,15.24
2022-08-11T02:43:58.383Z,15.24
2022-08-11T02:44:58.411Z,15.24
2022-08-11T02:45:58.427Z,15.23
2022-08-11T02:46:58.406Z,15.21
2022-08-11T02:47:59.361Z,15.21
2022-08-11T02:48:59.360Z,15.23
2022-08-11T02:50:02.760Z,15.21
2022-08-11T02:50:59.409Z,15.21
2022-08-11T02:51:58.365Z,15.23
2022-08-11T02:52:58.349Z,15.21
2022-08-11T02:53:58.500Z,15.21
2022-08-11T02:54:58.272Z,15.20
2022-08-11T02:55:58.504Z,15.19
2022-08-11T02:56:58.297Z,15.19
2022-08-11T02:57:58.271Z,15.17
2022-08-11T02:58:58.306Z,15.15
2022-08-11T02:59:58.186Z,15.12
2022-08-11T03:00:58.232Z,15.11
2022-08-11T03:02:00.761Z,15.09
2022-08-11T03:02:59.267Z,15.05
2022-08-11T03:03:58.252Z,15.01
2022-08-11T03:04:58.113Z,14.99
2022-08-11T03:05:58.182Z,14.95
2022-08-11T03:06:58.144Z,14.91
2022-08-11T03:07:58.166Z,14.90
2022-08-11T03:08:58.056Z,14.91
2022-08-11T03:09:58.117Z,14.90
2022-08-11T03:10:58.125Z,14.87
2022-08-11T03:11:58.099Z,14.88
2022-08-11T03:12:58.105Z,14.88
2022-08-11T03:13:58.027Z,14.90
2022-08-11T03:14:59.034Z,14.88
2022-08-11T03:15:57.975Z,14.91
2022-08-11T03:16:58.042Z,14.93
2022-08-11T03:17:58.016Z,14.94
2022-08-11T03:18:58.043Z,14.93
2022-08-11T03:19:57.953Z,14.93
2022-08-11T03:20:57.977Z,14.95
2022-08-11T03:23:19.969Z,14.99
2022-08-11T03:24:09.249Z,14.99
2022-08-11T03:25:12.469Z,14.99
2022-08-11T03:26:09.145Z,14.95
2022-08-11T03:27:10.207Z,14.95
2022-08-11T03:28:08.110Z,14.94
2022-08-11T03:29:08.121Z,14.91
2022-08-11T03:30:08.059Z,14.91
2022-08-11T03:31:08.031Z,14.90
2022-08-11T03:32:08.039Z,14.87
2022-08-11T03:33:10.135Z,14.87
2022-08-11T03:34:08.507Z,14.87
2022-08-11T03:35:08.123Z,14.87
2022-08-11T03:36:07.970Z,14.88
2022-08-11T03:37:16.224Z,14.88
2022-08-11T03:38:09.043Z,14.88
2022-08-11T03:39:08.051Z,14.86
2022-08-11T03:40:08.919Z,14.84
2022-08-11T03:42:01.395Z,14.86
2022-08-11T03:42:10.235Z,14.84
2022-08-11T03:43:07.878Z,14.83
2022-08-11T03:44:07.852Z,14.84
2022-08-11T03:45:07.862Z,14.86
2022-08-11T03:46:07.834Z,14.86
2022-08-11T03:47:07.808Z,14.84
2022-08-11T03:48:07.793Z,14.83
2022-08-11T03:49:07.782Z,14.84
2022-08-11T04:02:54.006Z,14.87
2022-08-11T04:03:53.985Z,14.87
2022-08-11T04:04:53.983Z,14.88
2022-08-11T04:05:53.992Z,14.87
2022-08-11T04:06:53.960Z,14.87
2022-08-11T04:07:53.942Z,14.87
2022-08-11T04:08:53.924Z,14.87
2022-08-11T04:09:53.920Z,14.88
2022-08-11T04:10:53.905Z,14.88
2022-08-11T04:11:53.889Z,14.88
2022-08-11T04:12:54.249Z,14.88
2022-08-11T04:13:53.868Z,14.90
2022-08-11T04:14:53.855Z,14.90
2022-08-11T04:15:53.836Z,14.88
2022-08-11T04:17:01.345Z,14.87
2022-08-11T04:17:53.806Z,14.87
2022-08-11T04:18:53.816Z,14.87
2022-08-11T04:19:53.790Z,14.88
2022-08-11T04:20:53.799Z,14.87
2022-08-11T04:21:53.943Z,14.88
2022-08-11T04:22:53.749Z,14.90
2022-08-11T04:24:36.059Z,14.91
2022-08-11T04:24:54.730Z,14.94
2022-08-11T04:25:58.527Z,14.94
2022-08-11T04:26:54.701Z,14.95
2022-08-11T04:27:53.679Z,14.98
2022-08-11T04:28:53.692Z,14.98
2022-08-11T04:30:03.799Z,14.98
2022-08-11T04:30:54.660Z,14.98
2022-08-11T04:31:54.612Z,14.98
2022-08-11T04:32:53.614Z,15.01
2022-08-11T04:33:53.620Z,14.99
2022-08-11T04:34:53.581Z,14.99
2022-08-11T04:35:53.581Z,15.02
2022-08-11T04:36:53.572Z,15.05
2022-08-11T04:37:53.695Z,15.08
2022-08-11T04:38:53.531Z,15.08
2022-08-11T04:39:53.664Z,15.11
2022-08-11T04:40:53.539Z,15.08
2022-08-11T04:41:53.503Z,15.05
2022-08-11T04:42:54.503Z,14.99
2022-08-11T04:44:05.654Z,14.98
2022-08-11T04:44:54.463Z,14.93
2022-08-11T04:45:53.485Z,14.90
2022-08-11T04:46:53.439Z,14.86
2022-08-11T04:47:59.715Z,14.83
2022-08-11T04:48:54.432Z,14.81
2022-08-11T04:49:53.381Z,14.78
2022-08-11T04:51:00.679Z,14.75
2022-08-11T04:51:54.387Z,14.75
2022-08-11T04:52:54.364Z,14.75
2022-08-11T04:53:53.346Z,14.78
2022-08-11T04:54:53.354Z,14.78
2022-08-11T04:55:53.326Z,14.81
2022-08-11T04:56:53.301Z,14.81
2022-08-11T04:57:53.307Z,14.86
2022-08-11T04:58:53.283Z,14.87
2022-08-11T04:59:53.281Z,14.93
2022-08-11T05:00:53.256Z,15.02
2022-08-11T05:01:53.283Z,15.09
2022-08-11T05:02:54.234Z,15.19
2022-08-11T05:03:53.216Z,15.24
2022-08-11T05:04:53.196Z,15.28
2022-08-11T05:05:54.715Z,15.35
2022-08-11T05:06:53.167Z,15.41
2022-08-11T05:07:53.803Z,15.46
2022-08-11T05:08:53.167Z,15.49
2022-08-11T05:09:53.155Z,15.56
2022-08-11T05:10:53.157Z,15.57
2022-08-11T05:11:59.438Z,15.60
2022-08-11T05:12:54.107Z,15.64
2022-08-11T05:13:54.088Z,15.66
2022-08-11T05:14:53.078Z,15.70
2022-08-11T05:15:53.067Z,15.75
2022-08-11T05:16:53.049Z,15.79
2022-08-11T05:17:54.022Z,15.84
2022-08-11T05:18:53.038Z,15.88
2022-08-11T05:19:53.001Z,15.92
2022-08-11T05:20:52.999Z,15.96
2022-08-11T05:21:52.980Z,15.96
2022-08-11T05:22:55.288Z,15.99
2022-08-11T05:23:52.961Z,16.01
2022-08-11T05:24:52.951Z,16.01
2022-08-11T05:26:45.066Z,16.03
2022-08-11T05:26:53.920Z,16.06
2022-08-11T05:27:52.921Z,16.09
2022-08-11T05:28:52.895Z,16.12
2022-08-11T05:29:52.872Z,16.15
2022-08-11T05:30:52.884Z,16.22
2022-08-11T05:31:52.853Z,16.26
2022-08-11T05:32:53.639Z,16.30
2022-08-11T05:33:52.848Z,16.34
2022-08-11T05:34:52.837Z,16.37
2022-08-11T05:36:00.089Z,16.41
2022-08-11T05:36:59.176Z,16.48
2022-08-11T05:37:53.799Z,16.52
2022-08-11T05:38:53.795Z,16.56
2022-08-11T05:39:52.798Z,16.60
2022-08-11T05:40:59.852Z,16.62
2022-08-11T05:41:53.733Z,16.65
2022-08-11T05:42:52.704Z,16.68
2022-08-11T05:44:21.520Z,16.73
2022-08-11T05:44:53.684Z,16.75
2022-08-11T05:46:02.672Z,16.80
2022-08-11T05:46:53.662Z,16.81
2022-08-11T05:47:52.637Z,16.85
2022-08-11T05:48:52.632Z,16.88
2022-08-11T05:49:53.615Z,16.89
2022-08-11T05:50:52.615Z,16.95
2022-08-11T05:51:55.529Z,16.98
2022-08-11T05:52:55.413Z,17.00
2022-08-11T05:53:52.575Z,17.06
2022-08-11T05:54:54.397Z,17.08
2022-08-11T05:56:02.545Z,17.11
2022-08-11T05:56:53.525Z,17.15
2022-08-11T05:57:52.520Z,17.18
2022-08-11T05:58:52.519Z,17.20
2022-08-11T05:59:52.493Z,17.23
2022-08-11T06:00:52.506Z,17.28
2022-08-11T06:01:52.606Z,17.33
2022-08-11T06:02:52.469Z,17.36
2022-08-11T06:03:57.946Z,17.41
2022-08-11T06:04:53.439Z,17.46
2022-08-11T06:05:52.498Z,17.48
2022-08-11T06:06:52.398Z,17.51
2022-08-11T06:07:52.390Z,17.54
2022-08-11T06:08:52.390Z,17.59
2022-08-11T06:09:52.360Z,17.62
2022-08-11T06:10:52.500Z,17.64
2022-08-11T06:11:52.399Z,17.69
2022-08-11T06:12:52.374Z,17.73
2022-08-11T06:13:52.371Z,17.76
2022-08-11T06:14:52.301Z,17.81
2022-08-11T06:15:52.304Z,17.85
2022-08-11T06:16:52.270Z,17.91
2022-08-11T06:17:52.261Z,17.94
2022-08-11T06:18:52.243Z,17.99
2022-08-11T06:19:52.235Z,18.04
2022-08-11T06:20:52.251Z,18.10
2022-08-11T06:21:52.213Z,18.13
2022-08-11T06:22:53.173Z,18.21
2022-08-11T06:23:52.183Z,18.24
2022-08-11T06:24:53.185Z,18.29
2022-08-11T06:25:52.172Z,18.36
2022-08-11T06:27:53.122Z,18.46
2022-08-11T06:28:52.127Z,18.50
2022-08-11T06:29:54.903Z,18.55
2022-08-11T06:30:52.122Z,18.61
2022-08-11T06:31:52.086Z,18.64
2022-08-11T06:32:52.088Z,18.65
2022-08-11T06:33:52.057Z,18.68
2022-08-11T06:34:52.035Z,18.73
2022-08-11T06:35:52.061Z,18.76
2022-08-11T06:36:53.017Z,18.80
2022-08-11T06:37:53.606Z,18.82
2022-08-11T06:38:52.984Z,18.84
2022-08-11T06:39:52.027Z,18.90
2022-08-11T06:40:51.965Z,18.91
2022-08-11T06:41:51.950Z,18.98
2022-08-11T06:42:51.936Z,19.01
2022-08-11T06:43:55.936Z,19.08
2022-08-11T06:44:51.918Z,19.11
2022-08-11T06:45:51.916Z,19.15
2022-08-11T06:46:51.885Z,19.20
2022-08-11T06:47:51.869Z,19.24
2022-08-11T06:48:51.854Z,19.29
2022-08-11T06:49:52.852Z,19.32
2022-08-11T06:50:51.842Z,19.38
2022-08-11T06:51:51.835Z,19.40
2022-08-11T06:52:51.799Z,19.47
2022-08-11T06:54:03.680Z,19.50
2022-08-11T06:54:52.798Z,19.54
2022-08-11T06:55:57.185Z,19.60
2022-08-11T06:57:06.745Z,19.63
2022-08-11T06:57:52.750Z,19.68
2022-08-11T06:58:51.719Z,19.69
2022-08-11T06:59:52.712Z,19.73
2022-08-11T07:00:51.717Z,19.76
2022-08-11T07:01:51.749Z,19.80
2022-08-11T07:02:52.669Z,19.84
2022-08-11T07:03:51.661Z,19.90
2022-08-11T07:04:52.645Z,19.93
2022-08-11T07:05:51.652Z,19.97
2022-08-11T07:06:51.626Z,20.00
2022-08-11T07:07:51.603Z,20.05
2022-08-11T07:08:51.621Z,20.09
2022-08-11T07:09:52.573Z,20.13
2022-08-11T07:10:51.572Z,20.18
2022-08-11T07:11:51.560Z,20.18
2022-08-11T07:12:51.532Z,20.23
2022-08-11T07:13:51.541Z,20.24
2022-08-11T07:14:51.513Z,20.27
2022-08-11T07:16:10.557Z,20.28
2022-08-11T07:16:52.507Z,20.34
2022-08-11T07:17:51.473Z,20.43
2022-08-11T07:18:51.461Z,20.51
2022-08-11T07:19:52.456Z,20.64
2022-08-11T07:20:51.447Z,20.72
2022-08-11T07:22:02.416Z,20.80
2022-08-11T07:22:52.394Z,20.87
2022-08-11T07:23:51.402Z,20.95
2022-08-11T07:25:01.402Z,21.01
2022-08-11T07:25:52.526Z,21.05
2022-08-11T07:26:51.355Z,21.13
2022-08-11T07:27:51.382Z,21.16
2022-08-11T07:28:53.354Z,21.23
2022-08-11T07:29:51.306Z,21.27
2022-08-11T07:30:51.946Z,21.34
2022-08-11T07:31:51.298Z,21.39
2022-08-11T07:32:51.274Z,21.46
2022-08-11T07:34:08.200Z,21.50
2022-08-11T07:34:52.283Z,21.54
2022-08-11T07:35:51.271Z,21.56
2022-08-11T07:36:51.238Z,21.57
2022-08-11T07:37:51.214Z,21.57
2022-08-11T07:38:52.208Z,21.59
2022-08-11T07:39:51.225Z,21.63
2022-08-11T07:40:51.178Z,21.66
2022-08-11T07:41:51.211Z,21.71
2022-08-11T07:42:51.147Z,21.74
2022-08-11T07:43:51.140Z,21.76
2022-08-11T07:44:51.152Z,21.79
2022-08-11T07:45:51.121Z,21.82
2022-08-11T07:46:51.109Z,21.82
2022-08-11T07:47:51.100Z,21.88
2022-08-11T07:48:51.079Z,21.91
2022-08-11T07:49:51.073Z,21.94
2022-08-11T07:50:55.885Z,21.95
2022-08-11T07:51:52.051Z,21.98
2022-08-11T07:52:52.908Z,22.04
2022-08-11T07:53:58.782Z,22.06
2022-08-11T07:54:53.011Z,22.09
2022-08-11T07:55:53.533Z,22.09
2022-08-11T07:57:07.452Z,22.10
2022-08-11T07:58:15.886Z,22.12
2022-08-11T07:58:53.207Z,22.13
2022-08-11T08:00:04.142Z,22.12
2022-08-11T08:00:51.961Z,22.12
2022-08-11T08:01:50.974Z,22.10
2022-08-11T08:02:50.925Z,22.12
2022-08-11T08:03:54.181Z,22.13
2022-08-11T08:04:50.910Z,22.19
2022-08-11T08:05:50.913Z,22.23
2022-08-11T08:06:50.865Z,22.27
2022-08-11T08:07:50.867Z,22.29
2022-08-11T08:08:50.872Z,22.34
2022-08-11T08:09:51.838Z,22.37
2022-08-11T08:10:50.810Z,22.43
2022-08-11T08:11:51.808Z,22.44
2022-08-11T08:12:50.788Z,22.50
2022-08-11T08:13:50.765Z,22.53
2022-08-11T08:14:50.819Z,22.56
2022-08-11T08:15:50.760Z,22.57
2022-08-11T08:16:50.728Z,22.57
2022-08-11T08:18:09.597Z,22.60
2022-08-11T08:18:51.687Z,22.64
2022-08-11T08:19:50.703Z,22.65
2022-08-11T08:20:50.827Z,22.68
2022-08-11T08:21:50.690Z,22.72
2022-08-11T08:22:50.910Z,22.69
2022-08-11T08:23:53.722Z,22.68
2022-08-11T08:24:51.640Z,22.69
2022-08-11T08:25:50.630Z,22.69
2022-08-11T08:26:51.984Z,22.74
2022-08-11T08:27:50.600Z,22.80
2022-08-11T08:28:50.590Z,22.87
2022-08-11T08:29:50.572Z,22.92
2022-08-11T08:30:50.596Z,23.02
2022-08-11T08:31:50.546Z,23.09
2022-08-11T08:32:50.531Z,23.17
2022-08-11T08:33:50.523Z,23.26
2022-08-11T08:34:50.526Z,23.32
2022-08-11T08:35:54.505Z,23.40
2022-08-11T08:36:51.474Z,23.45
2022-08-11T08:37:51.122Z,23.52
2022-08-11T08:38:50.434Z,23.57
2022-08-11T08:39:50.460Z,23.64
2022-08-11T08:40:50.482Z,23.70
2022-08-11T08:41:50.425Z,23.75
2022-08-11T08:42:50.392Z,23.79
2022-08-11T08:43:50.408Z,23.85
2022-08-11T08:44:50.415Z,23.87
2022-08-11T08:45:50.415Z,23.94
2022-08-11T08:46:51.336Z,24.00
2022-08-11T08:47:53.195Z,24.04
2022-08-11T08:48:50.326Z,24.08
2022-08-11T08:49:50.288Z,24.16
2022-08-11T08:50:50.306Z,24.20
2022-08-11T08:52:01.091Z,24.24
2022-08-11T08:52:51.564Z,24.29
2022-08-11T08:53:53.485Z,24.34
2022-08-11T08:54:51.230Z,24.38
2022-08-11T08:55:50.238Z,24.44
2022-08-11T08:56:51.189Z,24.49
2022-08-11T08:57:50.221Z,24.53
2022-08-11T08:58:51.589Z,24.57
2022-08-11T08:59:51.382Z,24.64
2022-08-11T09:00:50.160Z,24.71
2022-08-11T09:01:50.304Z,24.76
2022-08-11T09:02:51.128Z,24.79
2022-08-11T09:04:04.694Z,24.83
2022-08-11T09:04:51.119Z,24.90
2022-08-11T09:05:50.091Z,24.94
2022-08-11T09:06:52.260Z,25.00
2022-08-11T09:07:50.073Z,25.06
2022-08-11T09:08:52.412Z,25.12
2022-08-11T09:09:50.033Z,25.16
2022-08-11T09:10:50.040Z,25.20
2022-08-11T09:11:50.019Z,25.27
2022-08-11T09:12:51.264Z,25.28
2022-08-11T09:14:04.956Z,25.32
2022-08-11T09:14:50.984Z,25.35
2022-08-11T09:15:55.823Z,25.39
2022-08-11T09:16:50.970Z,25.43
2022-08-11T09:17:49.968Z,25.47
2022-08-11T09:18:49.914Z,25.53
2022-08-11T09:19:54.097Z,25.57
2022-08-11T09:20:50.910Z,25.64
2022-08-11T09:21:49.957Z,25.67
2022-08-11T09:23:10.300Z,25.71
2022-08-11T09:24:08.756Z,25.79
2022-08-11T09:24:50.834Z,25.83
2022-08-11T09:25:49.885Z,25.89
2022-08-11T09:26:49.816Z,25.89
2022-08-11T09:27:50.813Z,25.93
2022-08-11T09:28:50.808Z,25.97
2022-08-11T09:29:49.803Z,26.04
2022-08-11T09:30:49.798Z,26.09
2022-08-11T09:31:49.780Z,26.18
2022-08-11T09:32:49.739Z,26.24
2022-08-11T09:33:50.719Z,26.27
2022-08-11T09:34:49.720Z,26.36
2022-08-11T09:35:49.732Z,26.43
2022-08-11T09:36:49.680Z,26.52
2022-08-11T09:37:55.720Z,26.57
2022-08-11T09:38:50.672Z,26.58
2022-08-11T09:39:49.728Z,26.62
2022-08-11T09:40:52.767Z,26.61
2022-08-11T09:42:00.488Z,26.61
2022-08-11T09:42:50.608Z,26.64
2022-08-11T09:43:49.604Z,26.65
2022-08-11T09:44:50.145Z,26.73
2022-08-11T09:45:49.617Z,26.74
2022-08-11T10:03:22.898Z,27.41
2022-08-11T10:04:22.869Z,27.46
2022-08-11T10:05:22.840Z,27.57
2022-08-11T10:06:34.128Z,27.64
2022-08-11T10:07:23.812Z,27.70
2022-08-11T10:08:22.804Z,27.79
2022-08-11T10:09:22.887Z,27.86
2022-08-11T10:10:22.824Z,27.91
2022-08-11T10:11:22.782Z,27.98
2022-08-11T10:12:23.752Z,28.01
2022-08-11T10:14:30.375Z,28.01
2022-08-11T10:14:33.729Z,28.06
2022-08-11T10:15:23.735Z,28.10
2022-08-11T10:16:22.703Z,28.16
2022-08-11T10:17:22.684Z,28.21
2022-08-11T10:18:22.665Z,28.26
2022-08-11T10:19:22.665Z,28.19
2022-08-11T10:20:25.707Z,28.25
2022-08-11T10:21:22.637Z,28.32
2022-08-11T10:22:22.641Z,28.35
2022-08-11T10:23:22.624Z,28.36
2022-08-11T10:24:22.595Z,28.41
2022-08-11T10:25:22.597Z,28.46
2022-08-11T10:26:22.567Z,28.46
2022-08-11T10:27:26.010Z,28.46
2022-08-11T10:28:33.659Z,28.41
2022-08-11T10:29:23.547Z,28.46
2022-08-11T10:30:22.547Z,28.53
2022-08-11T10:31:23.209Z,28.58
2022-08-11T10:32:22.491Z,28.68
2022-08-11T10:33:36.585Z,28.70
2022-08-11T10:34:23.754Z,28.81
2022-08-11T10:35:22.689Z,28.88
2022-08-11T10:36:23.063Z,28.96
2022-08-11T10:37:22.711Z,29.03
2022-08-11T10:38:22.473Z,29.08
2022-08-11T10:39:23.524Z,29.11
2022-08-11T10:40:22.544Z,29.13
2022-08-11T10:41:22.484Z,29.16
2022-08-11T10:42:41.332Z,29.19
2022-08-11T10:44:03.191Z,29.18
2022-08-11T10:44:23.611Z,29.19
2022-08-11T10:45:22.565Z,29.20
2022-08-11T10:46:30.154Z,29.25
2022-08-11T10:47:23.291Z,29.23
2022-08-11T10:48:22.315Z,29.25
2022-08-11T10:49:22.306Z,29.31
2022-08-11T10:50:23.295Z,29.35
2022-08-11T10:51:50.092Z,29.40
2022-08-11T10:52:23.225Z,29.43
2022-08-11T10:53:22.226Z,29.52
2022-08-11T10:54:22.241Z,29.56
2022-08-11T10:55:23.217Z,29.56
2022-08-11T10:56:22.203Z,29.60
2022-08-11T10:57:22.177Z,29.65
2022-08-11T10:58:22.166Z,29.62
2022-08-11T10:59:22.168Z,29.62
2022-08-11T11:00:22.175Z,29.66
2022-08-11T11:01:22.169Z,29.68
2022-08-11T11:02:22.179Z,29.75
2022-08-11T11:03:23.966Z,29.78
2022-08-11T11:04:22.089Z,29.74
2022-08-11T11:05:22.101Z,29.77
2022-08-11T11:06:29.160Z,29.82
2022-08-11T11:07:23.089Z,29.87
2022-08-11T11:08:22.048Z,29.96
2022-08-11T11:09:22.052Z,30.05
2022-08-11T11:10:22.058Z,30.11
2022-08-11T11:11:22.042Z,30.19
2022-08-11T11:12:22.112Z,30.31
2022-08-11T11:13:22.031Z,30.43
2022-08-11T11:14:22.124Z,30.50
2022-08-11T11:15:22.991Z,30.61
2022-08-11T11:16:22.138Z,30.75
2022-08-11T11:17:22.093Z,30.78
2022-08-11T11:18:21.968Z,30.87
2022-08-11T11:19:21.925Z,30.90
2022-08-11T11:20:36.101Z,30.93
2022-08-11T11:21:22.879Z,30.94
2022-08-11T11:22:22.854Z,30.96
2022-08-11T11:23:21.858Z,30.93
2022-08-11T11:24:21.846Z,30.99
2022-08-11T11:25:21.897Z,31.01
2022-08-11T11:26:27.456Z,31.09
2022-08-11T11:27:22.956Z,31.21
2022-08-11T11:28:22.064Z,31.35
2022-08-11T11:29:21.871Z,31.42
2022-08-11T11:30:21.785Z,31.53
2022-08-11T11:31:21.768Z,31.55
2022-08-11T11:32:21.755Z,31.53
2022-08-11T11:33:21.897Z,31.53
2022-08-11T11:34:21.707Z,31.58
2022-08-11T11:35:21.718Z,31.61
2022-08-11T11:36:21.727Z,31.68
2022-08-11T11:37:21.684Z,31.70
2022-08-11T11:38:21.668Z,31.80
2022-08-11T11:39:21.682Z,31.87
2022-08-11T11:40:21.650Z,31.95
2022-08-11T11:41:22.639Z,32.07
2022-08-11T11:42:22.578Z,32.17
2022-08-11T11:43:21.591Z,32.27
2022-08-11T11:44:21.611Z,32.36
2022-08-11T11:45:23.374Z,32.51
2022-08-11T11:46:21.541Z,32.66
2022-08-11T11:47:21.969Z,32.73
2022-08-11T11:48:21.531Z,32.84
2022-08-11T11:50:21.514Z,33.01
2022-08-11T11:51:21.484Z,33.10
2022-08-11T11:52:21.472Z,33.13
2022-08-11T11:53:21.511Z,33.23
2022-08-11T11:54:21.486Z,33.29
2022-08-11T11:56:21.408Z,33.55
2022-08-11T11:57:21.393Z,33.65
2022-08-11T11:58:22.129Z,33.73
2022-08-11T11:59:21.512Z,33.83
2022-08-11T12:00:21.407Z,33.89
2022-08-11T12:01:21.344Z,34.00
2022-08-11T12:02:22.544Z,34.04
2022-08-11T12:03:21.546Z,34.14
2022-08-11T12:04:21.368Z,34.22
2022-08-11T12:05:21.299Z,34.23
2022-08-11T12:06:21.299Z,34.14
2022-08-11T12:07:21.281Z,34.19
2022-08-11T12:08:24.605Z,34.24
2022-08-11T12:09:22.278Z,34.32
2022-08-11T12:10:22.239Z,34.32
2022-08-11T12:11:21.240Z,34.23
2022-08-11T12:12:22.209Z,34.26
2022-08-11T12:13:21.192Z,34.24
2022-08-11T12:14:21.202Z,34.35
2022-08-11T12:16:04.189Z,34.42
2022-08-11T12:16:33.157Z,34.54
2022-08-11T12:17:22.144Z,34.70
2022-08-11T12:18:21.123Z,34.80
2022-08-11T12:19:21.114Z,34.95
2022-08-11T12:20:33.519Z,35.11
2022-08-11T12:21:22.103Z,35.14
2022-08-11T12:22:21.153Z,35.23
2022-08-11T12:23:21.083Z,35.25
2022-08-11T12:24:21.043Z,35.33
2022-08-11T12:25:21.085Z,35.35
2022-08-11T12:26:27.247Z,35.47
2022-08-11T12:27:24.862Z,35.55
2022-08-11T12:28:21.005Z,35.62
2022-08-11T12:29:21.010Z,35.58
2022-08-11T12:30:20.982Z,35.54
2022-08-11T12:31:21.007Z,35.36
2022-08-11T12:32:20.996Z,35.37
2022-08-11T12:33:24.123Z,35.33
2022-08-11T12:34:20.937Z,35.42
2022-08-11T12:35:21.048Z,35.45
2022-08-11T12:36:20.891Z,35.54
2022-08-11T12:37:20.898Z,35.54
2022-08-11T12:38:26.056Z,35.63
2022-08-11T12:39:23.522Z,35.62
2022-08-11T12:41:11.203Z,35.73
2022-08-11T12:41:21.886Z,35.77
2022-08-11T12:42:20.812Z,35.92
2022-08-11T12:43:22.258Z,36.20
2022-08-11T12:44:24.808Z,36.26
2022-08-11T12:45:22.199Z,36.45
2022-08-11T12:46:20.767Z,36.65
2022-08-11T12:47:20.764Z,36.91
2022-08-11T12:48:58.999Z,37.31
2022-08-11T12:49:21.733Z,37.64
2022-08-11T12:50:22.883Z,37.78
2022-08-11T12:51:20.741Z,38.07
2022-08-11T12:52:21.713Z,38.30
2022-08-11T12:53:20.674Z,38.51
2022-08-11T12:54:20.665Z,38.87
2022-08-11T12:55:20.722Z,39.22
2022-08-11T12:56:20.675Z,39.58
2022-08-11T12:57:36.747Z,39.80
2022-08-11T12:58:21.618Z,40.11
2022-08-11T12:59:20.628Z,40.42
2022-08-11T13:00:20.612Z,40.52
2022-08-11T13:01:20.616Z,40.49
2022-08-11T13:02:20.559Z,40.69
2022-08-11T13:03:20.569Z,40.88
2022-08-11T13:04:20.563Z,40.96
2022-08-11T13:05:20.537Z,40.99
2022-08-11T13:06:20.591Z,40.86
2022-08-11T13:07:20.539Z,40.80
2022-08-11T13:08:20.501Z,40.93
2022-08-11T13:09:20.489Z,41.13
2022-08-11T13:10:20.515Z,41.15
2022-08-11T13:11:20.493Z,41.33
2022-08-11T13:12:20.442Z,41.03
2022-08-11T13:13:53.438Z,40.71
2022-08-11T13:14:21.467Z,40.83
2022-08-11T13:15:20.439Z,40.90
2022-08-11T13:16:20.394Z,40.62
2022-08-11T13:17:20.423Z,40.42
2022-08-11T13:18:21.398Z,39.96
2022-08-11T13:19:21.513Z,39.40
2022-08-11T13:20:20.378Z,39.06
2022-08-11T13:21:21.159Z,39.10
2022-08-11T13:22:20.346Z,39.30
2022-08-11T13:23:20.315Z,39.17
2022-08-11T13:24:20.386Z,39.02
2022-08-11T13:25:20.297Z,38.95